createdAt,value
2019-03-21T00:00:29.375Z,103110.12
2019-03-21T00:05:19.879Z,103108.81
2019-03-21T00:10:11.879Z,103116.97
2019-03-21T00:15:04.190Z,103110.68
2019-03-21T00:19:55.888Z,103114.27
2019-03-21T00:24:47.660Z,103119.23
2019-03-21T00:29:39.487Z,103122.08
2019-03-21T00:34:31.471Z,103129.76
2019-03-21T00:39:34.194Z,103129.87
2019-03-21T00:44:26.400Z,103126.66
2019-03-21T00:49:17.138Z,103121.19
2019-03-21T00:54:10.200Z,103119.97
2019-03-21T00:59:01.866Z,103122.31
2019-03-21T01:03:55.791Z,103113.94
2019-03-21T01:08:47.509Z,103111.08
2019-03-21T01:13:39.340Z,103116.09
2019-03-21T01:18:30.737Z,103113.70
2019-03-21T01:23:22.340Z,103117.27
2019-03-21T01:28:13.222Z,103118.94
2019-03-21T01:33:04.082Z,103104.33
2019-03-21T01:37:55.175Z,103105.04
2019-03-21T01:42:46.365Z,103100.41
2019-03-21T01:47:38.185Z,103103.86
2019-03-21T01:52:30.013Z,103104.24
2019-03-21T01:57:23.581Z,103106.80
2019-03-21T02:02:15.081Z,103101.52
2019-03-21T02:07:07.004Z,103094.36
2019-03-21T02:11:58.836Z,103080.81
2019-03-21T02:16:50.777Z,103085.53
2019-03-21T02:21:42.689Z,103079.05
2019-03-21T02:26:34.730Z,103076.78
2019-03-21T02:31:27.515Z,103073.83
2019-03-21T02:36:19.295Z,103078.80
2019-03-21T02:41:11.401Z,103079.33
2019-03-21T02:46:03.491Z,103079.19
2019-03-21T02:50:55.858Z,103068.80
2019-03-21T02:55:49.486Z,103076.77
2019-03-21T03:00:40.503Z,103077.06
2019-03-21T03:05:31.818Z,103076.39
2019-03-21T03:10:23.723Z,103077.02
2019-03-21T03:15:25.342Z,103071.66
2019-03-21T03:20:16.800Z,103079.00
2019-03-21T03:25:08.688Z,103082.91
2019-03-21T03:30:00.628Z,103069.83
2019-03-21T03:34:52.815Z,103077.52
2019-03-21T03:39:44.626Z,103086.45
2019-03-21T03:44:36.929Z,103088.82
2019-03-21T03:49:28.531Z,103083.45
2019-03-21T03:54:20.318Z,103089.88
2019-03-21T03:59:12.411Z,103096.60
2019-03-21T04:04:04.297Z,103093.16
2019-03-21T04:08:55.965Z,103093.67
2019-03-21T04:13:48.136Z,103098.83
2019-03-21T04:18:40.159Z,103099.08
2019-03-21T04:23:32.514Z,103096.42
2019-03-21T04:28:24.478Z,103104.36
2019-03-21T04:33:16.673Z,103101.84
2019-03-21T04:38:08.841Z,103096.45
2019-03-21T04:43:00.845Z,103100.77
2019-03-21T04:47:52.968Z,103105.35
2019-03-21T04:52:44.927Z,103101.69
2019-03-21T04:57:37.042Z,103106.11
2019-03-21T05:02:29.102Z,103097.16
2019-03-21T05:07:20.988Z,103101.80
2019-03-21T05:12:13.055Z,103100.86
2019-03-21T05:17:04.812Z,103104.05
2019-03-21T05:21:56.749Z,103102.26
2019-03-21T05:26:48.701Z,103103.25
2019-03-21T05:31:40.719Z,103111.91
2019-03-21T05:36:32.644Z,103105.34
2019-03-21T05:41:24.343Z,103114.25
2019-03-21T05:46:27.963Z,103118.90
2019-03-21T05:51:17.690Z,103117.58
2019-03-21T05:56:09.571Z,103122.06
2019-03-21T06:01:02.401Z,103124.52
2019-03-21T06:05:53.934Z,103132.39
2019-03-21T06:10:46.059Z,103134.89
2019-03-21T06:15:37.848Z,103136.52
2019-03-21T06:20:30.156Z,103145.19
2019-03-21T06:25:22.153Z,103147.78
2019-03-21T06:30:16.276Z,103143.58
2019-03-21T06:35:07.897Z,103133.17
2019-03-21T06:40:02.035Z,103138.92
2019-03-21T06:44:53.929Z,103147.36
2019-03-21T06:49:48.132Z,103148.36
2019-03-21T06:54:39.242Z,103152.31
2019-03-21T06:59:31.533Z,103152.22
2019-03-21T07:04:23.614Z,103152.30
2019-03-21T07:09:16.618Z,103151.97
2019-03-21T07:14:08.460Z,103147.09
2019-03-21T07:19:00.549Z,103150.57
2019-03-21T07:23:52.852Z,103142.83
2019-03-21T07:28:45.276Z,103142.41
2019-03-21T07:33:38.389Z,103139.79
2019-03-21T07:38:30.610Z,103140.99
2019-03-21T07:43:24.146Z,103137.58
2019-03-21T07:48:16.118Z,103136.55
2019-03-21T07:53:08.451Z,103145.70
2019-03-21T07:58:01.277Z,103141.52
2019-03-21T08:02:53.565Z,103132.16
2019-03-21T08:07:46.047Z,103134.84
2019-03-21T08:12:38.441Z,103125.99
2019-03-21T08:17:30.811Z,103133.20
2019-03-21T08:22:23.136Z,103129.59
2019-03-21T08:27:17.869Z,103127.10
2019-03-21T08:32:10.437Z,103128.06
2019-03-21T08:37:02.840Z,103132.31
2019-03-21T08:41:55.532Z,103133.70
2019-03-21T08:46:47.992Z,103138.13
2019-03-21T08:51:40.144Z,103141.47
2019-03-21T08:56:34.301Z,103139.03
2019-03-21T09:01:26.211Z,103136.75
2019-03-21T09:06:18.535Z,103139.77
2019-03-21T09:11:10.769Z,103141.78
2019-03-21T09:16:03.423Z,103148.49
2019-03-21T09:20:55.924Z,103143.75
2019-03-21T09:25:48.267Z,103140.84
2019-03-21T09:30:40.561Z,103140.34
2019-03-21T09:35:32.965Z,103138.64
2019-03-21T09:40:25.501Z,103142.69
2019-03-21T09:45:17.965Z,103141.19
2019-03-21T09:50:10.446Z,103134.47
2019-03-21T09:55:03.326Z,103129.73
2019-03-21T09:59:54.190Z,103125.87
2019-03-21T10:04:45.806Z,103124.21
2019-03-21T10:09:37.329Z,103120.44
2019-03-21T10:14:28.847Z,103118.27
2019-03-21T10:19:20.266Z,103118.41
2019-03-21T10:24:11.767Z,103125.16
2019-03-21T10:29:02.637Z,103122.52
2019-03-21T10:33:54.118Z,103119.34
2019-03-21T10:38:46.447Z,103115.05
2019-03-21T10:43:39.029Z,103104.37
2019-03-21T10:48:31.396Z,103101.44
2019-03-21T10:53:24.226Z,103101.09
2019-03-21T10:58:18.788Z,103101.27
2019-03-21T11:03:10.837Z,103102.94
2019-03-21T11:08:03.299Z,103102.80
2019-03-21T11:12:55.718Z,103099.00
2019-03-21T11:17:47.952Z,103096.73
2019-03-21T11:22:40.177Z,103090.57
2019-03-21T11:27:34.507Z,103085.28
2019-03-21T11:32:26.479Z,103082.21
2019-03-21T11:37:19.113Z,103082.92
2019-03-21T11:42:11.496Z,103064.45
2019-03-21T11:47:03.954Z,103073.58
2019-03-21T11:51:56.573Z,103071.71
2019-03-21T11:56:49.181Z,103062.98
2019-03-21T12:01:41.638Z,103058.36
2019-03-21T12:06:33.898Z,103058.86
2019-03-21T12:11:26.194Z,103048.51
2019-03-21T12:16:18.666Z,103038.36
2019-03-21T12:21:11.353Z,103030.16
2019-03-21T12:26:03.798Z,103024.77
2019-03-21T12:30:56.484Z,103024.70
2019-03-21T12:35:49.235Z,103012.85
2019-03-21T12:40:42.121Z,103000.38
2019-03-21T12:45:35.016Z,103006.03
2019-03-21T12:50:27.748Z,102994.02
2019-03-21T12:55:20.357Z,102988.77
2019-03-21T13:00:12.968Z,102983.59
2019-03-21T13:05:05.672Z,102981.18
2019-03-21T13:09:58.149Z,102976.12
2019-03-21T13:14:49.974Z,102975.86
2019-03-21T13:19:42.195Z,102977.62
2019-03-21T13:24:34.753Z,102970.73
2019-03-21T13:29:27.438Z,102962.41
2019-03-21T13:34:20.017Z,102962.74
2019-03-21T13:39:13.252Z,102959.38
2019-03-21T13:44:07.309Z,102954.50
2019-03-21T13:48:58.909Z,102955.84
2019-03-21T13:53:51.242Z,102943.92
2019-03-21T13:58:46.543Z,102940.59
2019-03-21T14:03:38.334Z,102936.00
2019-03-21T14:08:30.381Z,102934.29
2019-03-21T14:13:22.792Z,102926.16
2019-03-21T14:18:15.069Z,102915.80
2019-03-21T14:23:18.541Z,102920.93
2019-03-21T14:28:08.566Z,102910.88
2019-03-21T14:33:00.914Z,102909.08
2019-03-21T14:37:52.981Z,102906.81
2019-03-21T14:42:45.819Z,102907.25
2019-03-21T14:47:38.279Z,102906.97
2019-03-21T14:52:30.597Z,102895.14
2019-03-21T14:57:23.925Z,102902.18
2019-03-21T15:02:15.662Z,102896.96
2019-03-21T15:07:07.621Z,102889.70
2019-03-21T15:12:00.672Z,102885.32
2019-03-21T15:16:52.440Z,102884.91
2019-03-21T15:21:44.264Z,102882.11
2019-03-21T15:26:36.541Z,102877.91
2019-03-21T15:31:28.651Z,102878.14
2019-03-21T15:36:20.996Z,102878.51
2019-03-21T15:41:14.197Z,102875.01
2019-03-21T15:46:06.208Z,102875.59
2019-03-21T15:51:06.184Z,102873.64
2019-03-21T15:55:56.566Z,102878.18
2019-03-21T16:00:48.550Z,102877.34
2019-03-21T16:05:40.622Z,102872.80
2019-03-21T16:10:32.737Z,102868.30
2019-03-21T16:15:25.200Z,102868.41
2019-03-21T16:20:17.399Z,102861.33
2019-03-21T16:25:09.443Z,102858.91
2019-03-21T16:30:01.566Z,102860.11
2019-03-21T16:34:56.069Z,102872.31
2019-03-21T16:39:47.758Z,102861.61
2019-03-21T16:44:40.079Z,102857.67
2019-03-21T16:49:32.347Z,102857.70
2019-03-21T16:54:24.603Z,102855.87
2019-03-21T16:59:16.868Z,102853.02
2019-03-21T17:04:08.972Z,102850.65
2019-03-21T17:09:00.759Z,102855.89
2019-03-21T17:13:53.039Z,102850.53
2019-03-21T17:18:45.365Z,102847.46
2019-03-21T17:23:37.522Z,102860.53
2019-03-21T17:28:29.608Z,102870.19
2019-03-21T17:33:21.830Z,102866.47
2019-03-21T17:38:13.775Z,102861.86
2019-03-21T17:43:05.969Z,102855.80
2019-03-21T17:48:00.293Z,102857.73
2019-03-21T17:52:51.732Z,102865.06
2019-03-21T17:57:43.825Z,102873.30
2019-03-21T18:02:38.034Z,102876.34
2019-03-21T18:07:29.814Z,102879.83
2019-03-21T18:12:22.166Z,102882.98
2019-03-21T18:17:14.204Z,102879.23
2019-03-21T18:22:06.219Z,102881.44
2019-03-21T18:26:58.240Z,102896.58
2019-03-21T18:31:50.156Z,102901.20
2019-03-21T18:36:42.333Z,102894.64
2019-03-21T18:41:34.204Z,102898.91
2019-03-21T18:46:28.089Z,102907.61
2019-03-21T18:51:19.695Z,102902.23
2019-03-21T18:56:11.571Z,102912.31
2019-03-21T19:01:03.564Z,102912.77
2019-03-21T19:05:55.597Z,102909.34
2019-03-21T19:10:47.485Z,102910.12
2019-03-21T19:15:39.460Z,102909.41
2019-03-21T19:20:31.555Z,102913.47
2019-03-21T19:25:23.551Z,102909.67
2019-03-21T19:30:17.149Z,102907.77
2019-03-21T19:35:08.879Z,102912.91
2019-03-21T19:40:00.755Z,102916.29
2019-03-21T19:44:52.709Z,102918.72
2019-03-21T19:49:44.939Z,102917.66
2019-03-21T19:54:36.921Z,102915.95
2019-03-21T19:59:28.806Z,102926.42
2019-03-21T20:04:20.937Z,102922.70
2019-03-21T20:09:13.011Z,102929.81
2019-03-21T20:14:05.834Z,102918.44
2019-03-21T20:18:57.359Z,102920.20
2019-03-21T20:23:49.264Z,102912.27
2019-03-21T20:28:41.425Z,102918.69
2019-03-21T20:33:33.415Z,102908.30
2019-03-21T20:38:25.358Z,102913.98
2019-03-21T20:43:17.469Z,102914.02
2019-03-21T20:48:09.583Z,102914.95
2019-03-21T20:53:01.550Z,102907.45
2019-03-21T20:57:53.744Z,102915.19
2019-03-21T21:02:45.700Z,102903.28
2019-03-21T21:07:37.834Z,102905.31
2019-03-21T21:12:29.930Z,102905.02
2019-03-21T21:17:21.850Z,102899.11
2019-03-21T21:22:13.691Z,102898.58
2019-03-21T21:27:05.842Z,102890.05
2019-03-21T21:31:57.789Z,102893.86
2019-03-21T21:36:49.703Z,102892.20
2019-03-21T21:41:41.621Z,102891.23
2019-03-21T21:46:33.608Z,102898.81
2019-03-21T21:51:25.677Z,102888.16
2019-03-21T21:56:19.570Z,102894.19
2019-03-21T22:01:11.737Z,102893.64
2019-03-21T22:06:06.561Z,102897.86
2019-03-21T22:10:57.721Z,102901.71
2019-03-21T22:15:49.768Z,102895.56
2019-03-21T22:20:42.114Z,102894.00
2019-03-21T22:25:36.144Z,102889.83
2019-03-21T22:30:27.585Z,102894.06
2019-03-21T22:35:19.650Z,102897.11
2019-03-21T22:40:11.546Z,102896.80
